sensor_id;sensor_type;location;lat;lon;timestamp;P1;durP1;ratioP1;P2;durP2;ratioP2
12892;SDS011;6514;48.606;9.222;2023-04-06T00:00:10;10.80;;;8.87;;
12892;SDS011;6514;48.606;9.222;2023-04-06T00:02:39;9.87;;;8.60;;
12892;SDS011;6514;48.606;9.222;2023-04-06T00:05:09;11.80;;;8.77;;
12892;SDS011;6514;48.606;9.222;2023-04-06T00:07:42;10.97;;;8.40;;
12892;SDS011;6514;48.606;9.222;2023-04-06T00:10:20;9.10;;;7.60;;
12892;SDS011;6514;48.606;9.222;2023-04-06T00:12:52;9.57;;;8.03;;
12892;SDS011;6514;48.606;9.222;2023-04-06T00:15:19;9.60;;;7.80;;
12892;SDS011;6514;48.606;9.222;2023-04-06T00:17:46;10.97;;;8.70;;
12892;SDS011;6514;48.606;9.222;2023-04-06T00:20:13;10.33;;;8.07;;
12892;SDS011;6514;48.606;9.222;2023-04-06T00:22:43;9.97;;;8.00;;
12892;SDS011;6514;48.606;9.222;2023-04-06T00:25:10;10.23;;;7.83;;
12892;SDS011;6514;48.606;9.222;2023-04-06T00:27:38;11.87;;;8.07;;
12892;SDS011;6514;48.606;9.222;2023-04-06T00:30:07;9.27;;;7.60;;
12892;SDS011;6514;48.606;9.222;2023-04-06T00:32:34;10.93;;;8.37;;
12892;SDS011;6514;48.606;9.222;2023-04-06T00:35:01;11.47;;;8.00;;
12892;SDS011;6514;48.606;9.222;2023-04-06T00:37:29;10.67;;;8.33;;
12892;SDS011;6514;48.606;9.222;2023-04-06T00:39:56;11.17;;;8.73;;
12892;SDS011;6514;48.606;9.222;2023-04-06T00:42:22;10.47;;;8.17;;
12892;SDS011;6514;48.606;9.222;2023-04-06T00:44:52;9.97;;;8.23;;
12892;SDS011;6514;48.606;9.222;2023-04-06T00:47:20;9.07;;;7.83;;
12892;SDS011;6514;48.606;9.222;2023-04-06T00:49:48;9.47;;;8.47;;
12892;SDS011;6514;48.606;9.222;2023-04-06T00:52:15;8.90;;;8.00;;
12892;SDS011;6514;48.606;9.222;2023-04-06T00:54:42;11.97;;;8.73;;
12892;SDS011;6514;48.606;9.222;2023-04-06T00:57:09;11.33;;;8.27;;
12892;SDS011;6514;48.606;9.222;2023-04-06T00:59:37;11.17;;;8.67;;
12892;SDS011;6514;48.606;9.222;2023-04-06T01:02:04;9.70;;;7.60;;
12892;SDS011;6514;48.606;9.222;2023-04-06T01:04:33;9.77;;;7.63;;
12892;SDS011;6514;48.606;9.222;2023-04-06T01:07:02;9.93;;;8.07;;
12892;SDS011;6514;48.606;9.222;2023-04-06T01:09:30;11.37;;;8.23;;
12892;SDS011;6514;48.606;9.222;2023-04-06T01:11:57;11.50;;;7.83;;
12892;SDS011;6514;48.606;9.222;2023-04-06T01:14:24;9.00;;;7.70;;
12892;SDS011;6514;48.606;9.222;2023-04-06T01:16:51;9.30;;;8.27;;
12892;SDS011;6514;48.606;9.222;2023-04-06T01:19:18;10.00;;;7.77;;
12892;SDS011;6514;48.606;9.222;2023-04-06T01:21:48;11.30;;;8.17;;
12892;SDS011;6514;48.606;9.222;2023-04-06T01:24:16;11.53;;;8.43;;
12892;SDS011;6514;48.606;9.222;2023-04-06T01:26:43;12.37;;;8.67;;
12892;SDS011;6514;48.606;9.222;2023-04-06T01:29:10;12.00;;;9.27;;
12892;SDS011;6514;48.606;9.222;2023-04-06T01:31:38;9.80;;;8.27;;
12892;SDS011;6514;48.606;9.222;2023-04-06T01:34:05;9.90;;;8.70;;
12892;SDS011;6514;48.606;9.222;2023-04-06T01:36:32;10.63;;;8.43;;
12892;SDS011;6514;48.606;9.222;2023-04-06T01:38:59;10.83;;;8.20;;
12892;SDS011;6514;48.606;9.222;2023-04-06T01:41:27;12.47;;;8.77;;
12892;SDS011;6514;48.606;9.222;2023-04-06T01:43:54;14.70;;;8.47;;
12892;SDS011;6514;48.606;9.222;2023-04-06T01:46:21;13.73;;;9.40;;
12892;SDS011;6514;48.606;9.222;2023-04-06T01:48:48;10.07;;;8.03;;
12892;SDS011;6514;48.606;9.222;2023-04-06T01:51:15;9.80;;;8.33;;
12892;SDS011;6514;48.606;9.222;2023-04-06T01:53:42;11.23;;;8.47;;
12892;SDS011;6514;48.606;9.222;2023-04-06T01:56:09;11.97;;;8.80;;
12892;SDS011;6514;48.606;9.222;2023-04-06T01:58:37;10.40;;;8.63;;
12892;SDS011;6514;48.606;9.222;2023-04-06T02:01:04;11.60;;;8.80;;
12892;SDS011;6514;48.606;9.222;2023-04-06T02:03:31;10.70;;;9.00;;
12892;SDS011;6514;48.606;9.222;2023-04-06T02:05:58;10.83;;;8.53;;
12892;SDS011;6514;48.606;9.222;2023-04-06T02:08:25;11.33;;;9.10;;
12892;SDS011;6514;48.606;9.222;2023-04-06T02:10:52;9.93;;;8.93;;
12892;SDS011;6514;48.606;9.222;2023-04-06T02:13:19;9.10;;;8.03;;
12892;SDS011;6514;48.606;9.222;2023-04-06T02:15:47;12.50;;;8.67;;
12892;SDS011;6514;48.606;9.222;2023-04-06T02:18:14;11.17;;;8.80;;
12892;SDS011;6514;48.606;9.222;2023-04-06T02:20:42;10.60;;;9.47;;
12892;SDS011;6514;48.606;9.222;2023-04-06T02:23:09;11.60;;;9.03;;
12892;SDS011;6514;48.606;9.222;2023-04-06T02:25:36;11.90;;;9.33;;
12892;SDS011;6514;48.606;9.222;2023-04-06T02:28:03;13.00;;;9.03;;
12892;SDS011;6514;48.606;9.222;2023-04-06T02:30:30;12.40;;;8.37;;
12892;SDS011;6514;48.606;9.222;2023-04-06T02:32:59;11.57;;;8.90;;
12892;SDS011;6514;48.606;9.222;2023-04-06T02:35:27;12.37;;;9.03;;
12892;SDS011;6514;48.606;9.222;2023-04-06T02:37:55;11.10;;;8.67;;
12892;SDS011;6514;48.606;9.222;2023-04-06T02:40:22;13.53;;;9.30;;
12892;SDS011;6514;48.606;9.222;2023-04-06T02:42:48;10.30;;;8.90;;
12892;SDS011;6514;48.606;9.222;2023-04-06T02:45:15;11.93;;;9.43;;
12892;SDS011;6514;48.606;9.222;2023-04-06T02:47:42;11.63;;;9.37;;
12892;SDS011;6514;48.606;9.222;2023-04-06T02:50:11;12.40;;;9.13;;
12892;SDS011;6514;48.606;9.222;2023-04-06T02:52:38;12.27;;;9.80;;
12892;SDS011;6514;48.606;9.222;2023-04-06T02:55:05;10.70;;;9.07;;
12892;SDS011;6514;48.606;9.222;2023-04-06T02:57:32;12.03;;;8.73;;
12892;SDS011;6514;48.606;9.222;2023-04-06T02:59:59;11.70;;;8.73;;
12892;SDS011;6514;48.606;9.222;2023-04-06T03:02:26;10.53;;;8.50;;
12892;SDS011;6514;48.606;9.222;2023-04-06T03:04:53;12.00;;;9.20;;
12892;SDS011;6514;48.606;9.222;2023-04-06T03:07:22;9.57;;;8.27;;
12892;SDS011;6514;48.606;9.222;2023-04-06T03:09:49;13.73;;;9.23;;
12892;SDS011;6514;48.606;9.222;2023-04-06T03:12:16;13.40;;;9.53;;
12892;SDS011;6514;48.606;9.222;2023-04-06T03:14:43;12.93;;;10.10;;
12892;SDS011;6514;48.606;9.222;2023-04-06T03:17:10;15.87;;;11.30;;
12892;SDS011;6514;48.606;9.222;2023-04-06T03:19:37;28.80;;;14.60;;
12892;SDS011;6514;48.606;9.222;2023-04-06T03:22:03;20.57;;;14.23;;
12892;SDS011;6514;48.606;9.222;2023-04-06T03:24:32;20.37;;;13.77;;
12892;SDS011;6514;48.606;9.222;2023-04-06T03:26:59;20.23;;;12.03;;
12892;SDS011;6514;48.606;9.222;2023-04-06T03:29:26;14.47;;;10.97;;
12892;SDS011;6514;48.606;9.222;2023-04-06T03:31:53;13.10;;;9.83;;
12892;SDS011;6514;48.606;9.222;2023-04-06T03:34:20;14.93;;;11.57;;
12892;SDS011;6514;48.606;9.222;2023-04-06T03:36:47;16.83;;;12.30;;
12892;SDS011;6514;48.606;9.222;2023-04-06T03:39:14;14.13;;;10.77;;
12892;SDS011;6514;48.606;9.222;2023-04-06T03:41:42;14.07;;;11.30;;
12892;SDS011;6514;48.606;9.222;2023-04-06T03:44:10;14.53;;;10.33;;
12892;SDS011;6514;48.606;9.222;2023-04-06T03:46:37;12.27;;;10.00;;
12892;SDS011;6514;48.606;9.222;2023-04-06T03:49:04;12.97;;;10.53;;
12892;SDS011;6514;48.606;9.222;2023-04-06T03:51:31;35.23;;;23.67;;
12892;SDS011;6514;48.606;9.222;2023-04-06T03:53:58;31.80;;;22.83;;
12892;SDS011;6514;48.606;9.222;2023-04-06T03:56:25;22.50;;;16.27;;
12892;SDS011;6514;48.606;9.222;2023-04-06T03:58:53;20.27;;;15.17;;
12892;SDS011;6514;48.606;9.222;2023-04-06T04:01:20;19.27;;;13.93;;
12892;SDS011;6514;48.606;9.222;2023-04-06T04:03:47;22.13;;;15.20;;
12892;SDS011;6514;48.606;9.222;2023-04-06T04:06:14;20.37;;;13.67;;
12892;SDS011;6514;48.606;9.222;2023-04-06T04:08:41;16.57;;;12.57;;
12892;SDS011;6514;48.606;9.222;2023-04-06T04:11:08;18.93;;;12.03;;
12892;SDS011;6514;48.606;9.222;2023-04-06T04:13:35;12.83;;;10.37;;
12892;SDS011;6514;48.606;9.222;2023-04-06T04:16:03;14.37;;;11.00;;
12892;SDS011;6514;48.606;9.222;2023-04-06T04:18:30;15.83;;;11.03;;
12892;SDS011;6514;48.606;9.222;2023-04-06T04:20:57;14.50;;;10.93;;
12892;SDS011;6514;48.606;9.222;2023-04-06T04:23:24;14.63;;;11.50;;
12892;SDS011;6514;48.606;9.222;2023-04-06T04:25:51;13.33;;;11.30;;
12892;SDS011;6514;48.606;9.222;2023-04-06T04:28:18;11.73;;;9.83;;
12892;SDS011;6514;48.606;9.222;2023-04-06T04:30:45;11.90;;;10.03;;
12892;SDS011;6514;48.606;9.222;2023-04-06T04:33:13;12.33;;;10.47;;
12892;SDS011;6514;48.606;9.222;2023-04-06T04:35:41;21.53;;;13.53;;
12892;SDS011;6514;48.606;9.222;2023-04-06T04:38:07;34.73;;;18.90;;
12892;SDS011;6514;48.606;9.222;2023-04-06T04:40:34;18.00;;;12.10;;
12892;SDS011;6514;48.606;9.222;2023-04-06T04:43:01;13.87;;;10.67;;
12892;SDS011;6514;48.606;9.222;2023-04-06T04:45:28;16.67;;;11.30;;
12892;SDS011;6514;48.606;9.222;2023-04-06T04:47:55;13.53;;;10.23;;
12892;SDS011;6514;48.606;9.222;2023-04-06T04:50:23;13.73;;;10.30;;
12892;SDS011;6514;48.606;9.222;2023-04-06T04:52:50;15.27;;;11.27;;
12892;SDS011;6514;48.606;9.222;2023-04-06T04:55:17;13.53;;;11.13;;
12892;SDS011;6514;48.606;9.222;2023-04-06T04:57:44;13.17;;;10.77;;
12892;SDS011;6514;48.606;9.222;2023-04-06T05:00:11;14.10;;;11.27;;
12892;SDS011;6514;48.606;9.222;2023-04-06T05:02:39;15.27;;;10.63;;
12892;SDS011;6514;48.606;9.222;2023-04-06T05:05:06;14.27;;;11.33;;
12892;SDS011;6514;48.606;9.222;2023-04-06T05:07:35;12.30;;;9.37;;
12892;SDS011;6514;48.606;9.222;2023-04-06T05:10:02;13.27;;;10.20;;
12892;SDS011;6514;48.606;9.222;2023-04-06T05:12:29;14.10;;;10.17;;
12892;SDS011;6514;48.606;9.222;2023-04-06T05:14:56;11.93;;;10.57;;
12892;SDS011;6514;48.606;9.222;2023-04-06T05:17:23;12.73;;;10.67;;
12892;SDS011;6514;48.606;9.222;2023-04-06T05:19:50;15.80;;;10.33;;
12892;SDS011;6514;48.606;9.222;2023-04-06T05:22:17;14.97;;;10.73;;
12892;SDS011;6514;48.606;9.222;2023-04-06T05:24:46;14.73;;;11.17;;
12892;SDS011;6514;48.606;9.222;2023-04-06T05:27:13;15.50;;;12.13;;
12892;SDS011;6514;48.606;9.222;2023-04-06T05:29:40;13.73;;;10.80;;
12892;SDS011;6514;48.606;9.222;2023-04-06T05:32:07;15.13;;;11.60;;
12892;SDS011;6514;48.606;9.222;2023-04-06T05:34:35;16.00;;;10.60;;
12892;SDS011;6514;48.606;9.222;2023-04-06T05:37:02;11.33;;;9.73;;
12892;SDS011;6514;48.606;9.222;2023-04-06T05:39:29;16.43;;;11.10;;
12892;SDS011;6514;48.606;9.222;2023-04-06T05:41:58;16.90;;;11.13;;
12892;SDS011;6514;48.606;9.222;2023-04-06T05:44:27;14.27;;;10.10;;
12892;SDS011;6514;48.606;9.222;2023-04-06T05:46:54;14.03;;;10.30;;
12892;SDS011;6514;48.606;9.222;2023-04-06T05:49:21;11.40;;;9.67;;
12892;SDS011;6514;48.606;9.222;2023-04-06T05:51:48;12.57;;;10.37;;
12892;SDS011;6514;48.606;9.222;2023-04-06T05:54:15;14.07;;;9.90;;
12892;SDS011;6514;48.606;9.222;2023-04-06T05:56:42;12.97;;;10.00;;
12892;SDS011;6514;48.606;9.222;2023-04-06T05:59:10;14.97;;;10.40;;
12892;SDS011;6514;48.606;9.222;2023-04-06T06:01:37;12.17;;;10.30;;
12892;SDS011;6514;48.606;9.222;2023-04-06T06:04:04;11.40;;;9.57;;
12892;SDS011;6514;48.606;9.222;2023-04-06T06:06:31;10.77;;;9.00;;
12892;SDS011;6514;48.606;9.222;2023-04-06T06:08:58;11.40;;;9.53;;
12892;SDS011;6514;48.606;9.222;2023-04-06T06:11:25;12.67;;;10.13;;
12892;SDS011;6514;48.606;9.222;2023-04-06T06:13:52;12.43;;;9.80;;
12892;SDS011;6514;48.606;9.222;2023-04-06T06:16:21;12.63;;;9.90;;
12892;SDS011;6514;48.606;9.222;2023-04-06T06:18:48;14.83;;;10.43;;
12892;SDS011;6514;48.606;9.222;2023-04-06T06:21:15;11.93;;;9.67;;
12892;SDS011;6514;48.606;9.222;2023-04-06T06:23:42;11.47;;;9.67;;
12892;SDS011;6514;48.606;9.222;2023-04-06T06:26:09;12.07;;;9.53;;
12892;SDS011;6514;48.606;9.222;2023-04-06T06:28:36;10.33;;;9.17;;
12892;SDS011;6514;48.606;9.222;2023-04-06T06:31:03;10.50;;;9.37;;
12892;SDS011;6514;48.606;9.222;2023-04-06T06:33:31;10.60;;;9.33;;
12892;SDS011;6514;48.606;9.222;2023-04-06T06:35:58;10.40;;;8.77;;
12892;SDS011;6514;48.606;9.222;2023-04-06T06:38:25;9.93;;;8.93;;
12892;SDS011;6514;48.606;9.222;2023-04-06T06:40:52;12.70;;;9.70;;
12892;SDS011;6514;48.606;9.222;2023-04-06T06:43:19;9.80;;;8.27;;
12892;SDS011;6514;48.606;9.222;2023-04-06T06:45:46;9.50;;;8.40;;
12892;SDS011;6514;48.606;9.222;2023-04-06T06:48:13;9.80;;;8.30;;
12892;SDS011;6514;48.606;9.222;2023-04-06T06:50:41;9.57;;;8.17;;
12892;SDS011;6514;48.606;9.222;2023-04-06T06:53:08;12.77;;;10.23;;
12892;SDS011;6514;48.606;9.222;2023-04-06T06:55:36;9.20;;;8.20;;
12892;SDS011;6514;48.606;9.222;2023-04-06T06:58:03;12.03;;;8.70;;
12892;SDS011;6514;48.606;9.222;2023-04-06T07:00:31;11.97;;;8.37;;
12892;SDS011;6514;48.606;9.222;2023-04-06T07:02:58;10.37;;;8.47;;
12892;SDS011;6514;48.606;9.222;2023-04-06T07:05:25;11.73;;;8.67;;
12892;SDS011;6514;48.606;9.222;2023-04-06T07:07:53;9.73;;;7.83;;
12892;SDS011;6514;48.606;9.222;2023-04-06T07:10:20;10.50;;;8.13;;
12892;SDS011;6514;48.606;9.222;2023-04-06T07:12:47;9.83;;;7.90;;
12892;SDS011;6514;48.606;9.222;2023-04-06T07:15:14;9.47;;;8.20;;
12892;SDS011;6514;48.606;9.222;2023-04-06T07:17:42;8.83;;;7.50;;
12892;SDS011;6514;48.606;9.222;2023-04-06T07:20:10;11.37;;;8.40;;
12892;SDS011;6514;48.606;9.222;2023-04-06T07:22:37;8.87;;;7.70;;
12892;SDS011;6514;48.606;9.222;2023-04-06T07:25:06;8.80;;;7.67;;
12892;SDS011;6514;48.606;9.222;2023-04-06T07:27:34;10.73;;;7.90;;
12892;SDS011;6514;48.606;9.222;2023-04-06T07:30:01;8.90;;;7.87;;
12892;SDS011;6514;48.606;9.222;2023-04-06T07:32:28;7.83;;;7.07;;
12892;SDS011;6514;48.606;9.222;2023-04-06T07:34:55;8.73;;;7.83;;
12892;SDS011;6514;48.606;9.222;2023-04-06T07:37:23;9.40;;;7.60;;
12892;SDS011;6514;48.606;9.222;2023-04-06T07:39:50;8.83;;;7.67;;
12892;SDS011;6514;48.606;9.222;2023-04-06T07:42:18;10.33;;;7.13;;
12892;SDS011;6514;48.606;9.222;2023-04-06T07:44:45;8.27;;;7.20;;
12892;SDS011;6514;48.606;9.222;2023-04-06T07:47:14;9.40;;;7.40;;
12892;SDS011;6514;48.606;9.222;2023-04-06T07:49:41;10.83;;;7.60;;
12892;SDS011;6514;48.606;9.222;2023-04-06T07:52:08;8.53;;;7.67;;
12892;SDS011;6514;48.606;9.222;2023-04-06T07:54:35;9.77;;;7.57;;
12892;SDS011;6514;48.606;9.222;2023-04-06T07:57:02;8.30;;;7.13;;
12892;SDS011;6514;48.606;9.222;2023-04-06T07:59:30;7.63;;;6.87;;
12892;SDS011;6514;48.606;9.222;2023-04-06T08:01:57;8.20;;;7.27;;
12892;SDS011;6514;48.606;9.222;2023-04-06T08:04:24;7.90;;;7.10;;
12892;SDS011;6514;48.606;9.222;2023-04-06T08:06:51;9.67;;;8.00;;
12892;SDS011;6514;48.606;9.222;2023-04-06T08:09:18;9.07;;;7.77;;
12892;SDS011;6514;48.606;9.222;2023-04-06T08:11:45;9.33;;;8.13;;
12892;SDS011;6514;48.606;9.222;2023-04-06T08:14:13;8.60;;;7.63;;
12892;SDS011;6514;48.606;9.222;2023-04-06T08:16:42;8.43;;;7.60;;
12892;SDS011;6514;48.606;9.222;2023-04-06T08:19:09;9.90;;;8.50;;
12892;SDS011;6514;48.606;9.222;2023-04-06T08:21:36;8.13;;;7.33;;
12892;SDS011;6514;48.606;9.222;2023-04-06T08:24:04;8.87;;;7.70;;
12892;SDS011;6514;48.606;9.222;2023-04-06T08:26:32;9.17;;;7.47;;
12892;SDS011;6514;48.606;9.222;2023-04-06T08:28:59;9.83;;;7.97;;
12892;SDS011;6514;48.606;9.222;2023-04-06T08:31:26;9.03;;;7.87;;
12892;SDS011;6514;48.606;9.222;2023-04-06T08:33:54;9.20;;;8.30;;
12892;SDS011;6514;48.606;9.222;2023-04-06T08:36:21;8.83;;;7.93;;
12892;SDS011;6514;48.606;9.222;2023-04-06T08:38:48;8.67;;;7.77;;
12892;SDS011;6514;48.606;9.222;2023-04-06T08:41:16;13.57;;;11.20;;
12892;SDS011;6514;48.606;9.222;2023-04-06T08:43:47;8.57;;;7.73;;
12892;SDS011;6514;48.606;9.222;2023-04-06T08:46:15;8.37;;;7.57;;
12892;SDS011;6514;48.606;9.222;2023-04-06T08:48:43;8.67;;;7.70;;
12892;SDS011;6514;48.606;9.222;2023-04-06T08:51:16;8.13;;;7.33;;
12892;SDS011;6514;48.606;9.222;2023-04-06T08:53:45;8.57;;;7.67;;
12892;SDS011;6514;48.606;9.222;2023-04-06T08:56:13;10.40;;;8.10;;
12892;SDS011;6514;48.606;9.222;2023-04-06T08:58:41;7.80;;;7.00;;
12892;SDS011;6514;48.606;9.222;2023-04-06T09:01:11;8.83;;;7.93;;
12892;SDS011;6514;48.606;9.222;2023-04-06T09:03:40;10.30;;;7.50;;
12892;SDS011;6514;48.606;9.222;2023-04-06T09:06:08;8.97;;;8.07;;
12892;SDS011;6514;48.606;9.222;2023-04-06T09:08:38;8.70;;;7.70;;
12892;SDS011;6514;48.606;9.222;2023-04-06T09:11:05;8.63;;;7.83;;
12892;SDS011;6514;48.606;9.222;2023-04-06T09:13:43;8.07;;;7.20;;
12892;SDS011;6514;48.606;9.222;2023-04-06T09:16:11;9.57;;;7.50;;
12892;SDS011;6514;48.606;9.222;2023-04-06T09:18:38;9.77;;;7.77;;
12892;SDS011;6514;48.606;9.222;2023-04-06T09:21:06;8.83;;;7.93;;
12892;SDS011;6514;48.606;9.222;2023-04-06T09:23:34;9.43;;;8.50;;
12892;SDS011;6514;48.606;9.222;2023-04-06T09:26:09;8.73;;;7.83;;
12892;SDS011;6514;48.606;9.222;2023-04-06T09:28:46;9.27;;;8.13;;
12892;SDS011;6514;48.606;9.222;2023-04-06T09:31:15;8.90;;;8.03;;
12892;SDS011;6514;48.606;9.222;2023-04-06T09:33:43;8.20;;;7.40;;
12892;SDS011;6514;48.606;9.222;2023-04-06T09:36:11;9.70;;;8.00;;
12892;SDS011;6514;48.606;9.222;2023-04-06T09:38:50;9.70;;;8.70;;
12892;SDS011;6514;48.606;9.222;2023-04-06T09:41:24;8.90;;;8.00;;
12892;SDS011;6514;48.606;9.222;2023-04-06T09:44:01;9.03;;;8.13;;
12892;SDS011;6514;48.606;9.222;2023-04-06T09:46:30;8.43;;;7.57;;
12892;SDS011;6514;48.606;9.222;2023-04-06T09:48:59;8.10;;;7.40;;
12892;SDS011;6514;48.606;9.222;2023-04-06T09:51:27;7.30;;;6.60;;
12892;SDS011;6514;48.606;9.222;2023-04-06T09:53:57;7.40;;;6.70;;
12892;SDS011;6514;48.606;9.222;2023-04-06T09:56:30;9.00;;;7.27;;
12892;SDS011;6514;48.606;9.222;2023-04-06T09:59:05;8.27;;;7.03;;
12892;SDS011;6514;48.606;9.222;2023-04-06T10:01:35;8.30;;;7.50;;
12892;SDS011;6514;48.606;9.222;2023-04-06T10:04:05;7.60;;;6.90;;
12892;SDS011;6514;48.606;9.222;2023-04-06T10:06:39;8.50;;;7.17;;
12892;SDS011;6514;48.606;9.222;2023-04-06T10:09:07;8.47;;;7.57;;
12892;SDS011;6514;48.606;9.222;2023-04-06T10:11:35;7.67;;;6.90;;
12892;SDS011;6514;48.606;9.222;2023-04-06T10:14:02;7.90;;;7.10;;
12892;SDS011;6514;48.606;9.222;2023-04-06T10:16:29;7.73;;;6.93;;
12892;SDS011;6514;48.606;9.222;2023-04-06T10:18:58;6.77;;;5.97;;
12892;SDS011;6514;48.606;9.222;2023-04-06T10:21:31;7.37;;;6.50;;
12892;SDS011;6514;48.606;9.222;2023-04-06T10:24:01;6.87;;;6.27;;
12892;SDS011;6514;48.606;9.222;2023-04-06T10:26:36;7.17;;;6.10;;
12892;SDS011;6514;48.606;9.222;2023-04-06T10:29:03;6.93;;;6.23;;
12892;SDS011;6514;48.606;9.222;2023-04-06T10:31:30;6.83;;;6.13;;
12892;SDS011;6514;48.606;9.222;2023-04-06T10:33:58;7.07;;;6.37;;
12892;SDS011;6514;48.606;9.222;2023-04-06T10:36:26;7.97;;;6.47;;
12892;SDS011;6514;48.606;9.222;2023-04-06T10:38:55;9.03;;;6.90;;
12892;SDS011;6514;48.606;9.222;2023-04-06T10:41:23;6.67;;;6.07;;
12892;SDS011;6514;48.606;9.222;2023-04-06T10:43:59;6.50;;;5.93;;
12892;SDS011;6514;48.606;9.222;2023-04-06T10:46:26;7.33;;;6.63;;
12892;SDS011;6514;48.606;9.222;2023-04-06T10:48:55;7.17;;;6.57;;
12892;SDS011;6514;48.606;9.222;2023-04-06T10:51:24;8.57;;;5.90;;
12892;SDS011;6514;48.606;9.222;2023-04-06T10:53:53;6.97;;;6.27;;
12892;SDS011;6514;48.606;9.222;2023-04-06T10:56:22;6.77;;;6.17;;
12892;SDS011;6514;48.606;9.222;2023-04-06T10:58:51;7.43;;;6.07;;
12892;SDS011;6514;48.606;9.222;2023-04-06T11:01:22;6.67;;;5.60;;
12892;SDS011;6514;48.606;9.222;2023-04-06T11:03:52;7.63;;;5.03;;
12892;SDS011;6514;48.606;9.222;2023-04-06T11:06:20;5.50;;;5.00;;
12892;SDS011;6514;48.606;9.222;2023-04-06T11:08:49;5.17;;;4.70;;
12892;SDS011;6514;48.606;9.222;2023-04-06T11:11:17;4.87;;;4.33;;
12892;SDS011;6514;48.606;9.222;2023-04-06T11:13:45;4.90;;;3.90;;
12892;SDS011;6514;48.606;9.222;2023-04-06T11:16:15;4.97;;;4.47;;
12892;SDS011;6514;48.606;9.222;2023-04-06T11:18:48;4.60;;;4.20;;
12892;SDS011;6514;48.606;9.222;2023-04-06T11:21:16;4.40;;;4.00;;
12892;SDS011;6514;48.606;9.222;2023-04-06T11:23:43;5.10;;;4.60;;
12892;SDS011;6514;48.606;9.222;2023-04-06T11:26:10;6.33;;;4.13;;
12892;SDS011;6514;48.606;9.222;2023-04-06T11:28:39;4.73;;;4.23;;
12892;SDS011;6514;48.606;9.222;2023-04-06T11:31:08;4.53;;;4.13;;
12892;SDS011;6514;48.606;9.222;2023-04-06T11:33:36;4.63;;;4.23;;
12892;SDS011;6514;48.606;9.222;2023-04-06T11:36:05;5.27;;;4.77;;
12892;SDS011;6514;48.606;9.222;2023-04-06T11:38:33;4.60;;;4.20;;
12892;SDS011;6514;48.606;9.222;2023-04-06T11:41:00;4.07;;;3.77;;
12892;SDS011;6514;48.606;9.222;2023-04-06T11:43:29;4.30;;;3.90;;
12892;SDS011;6514;48.606;9.222;2023-04-06T11:45:59;5.50;;;5.00;;
12892;SDS011;6514;48.606;9.222;2023-04-06T11:48:28;6.03;;;4.70;;
12892;SDS011;6514;48.606;9.222;2023-04-06T11:50:56;5.40;;;4.70;;
12892;SDS011;6514;48.606;9.222;2023-04-06T11:53:27;5.13;;;4.63;;
12892;SDS011;6514;48.606;9.222;2023-04-06T11:55:54;5.23;;;4.73;;
12892;SDS011;6514;48.606;9.222;2023-04-06T11:58:21;5.10;;;4.60;;
12892;SDS011;6514;48.606;9.222;2023-04-06T12:00:48;4.63;;;4.23;;
12892;SDS011;6514;48.606;9.222;2023-04-06T12:03:15;4.37;;;3.97;;
12892;SDS011;6514;48.606;9.222;2023-04-06T12:05:43;4.30;;;3.90;;
12892;SDS011;6514;48.606;9.222;2023-04-06T12:08:10;4.00;;;3.60;;
12892;SDS011;6514;48.606;9.222;2023-04-06T12:10:39;4.57;;;3.47;;
12892;SDS011;6514;48.606;9.222;2023-04-06T12:13:05;3.80;;;3.27;;
12892;SDS011;6514;48.606;9.222;2023-04-06T12:15:32;3.23;;;2.93;;
12892;SDS011;6514;48.606;9.222;2023-04-06T12:17:59;3.20;;;2.90;;
12892;SDS011;6514;48.606;9.222;2023-04-06T12:20:26;3.73;;;3.30;;
12892;SDS011;6514;48.606;9.222;2023-04-06T12:22:53;3.90;;;3.50;;
12892;SDS011;6514;48.606;9.222;2023-04-06T12:25:20;4.17;;;3.77;;
12892;SDS011;6514;48.606;9.222;2023-04-06T12:27:49;4.23;;;3.10;;
12892;SDS011;6514;48.606;9.222;2023-04-06T12:30:16;3.60;;;3.27;;
12892;SDS011;6514;48.606;9.222;2023-04-06T12:32:43;5.03;;;4.57;;
12892;SDS011;6514;48.606;9.222;2023-04-06T12:35:10;4.50;;;4.10;;
12892;SDS011;6514;48.606;9.222;2023-04-06T12:37:40;5.27;;;3.93;;
12892;SDS011;6514;48.606;9.222;2023-04-06T12:40:08;4.20;;;3.80;;
12892;SDS011;6514;48.606;9.222;2023-04-06T12:42:38;3.73;;;3.37;;
12892;SDS011;6514;48.606;9.222;2023-04-06T12:45:07;5.57;;;3.77;;
12892;SDS011;6514;48.606;9.222;2023-04-06T12:47:35;4.33;;;3.93;;
12892;SDS011;6514;48.606;9.222;2023-04-06T12:50:03;5.83;;;4.00;;
12892;SDS011;6514;48.606;9.222;2023-04-06T12:52:31;4.13;;;3.53;;
12892;SDS011;6514;48.606;9.222;2023-04-06T12:55:00;4.80;;;4.10;;
12892;SDS011;6514;48.606;9.222;2023-04-06T12:57:27;3.87;;;3.47;;
12892;SDS011;6514;48.606;9.222;2023-04-06T12:59:54;4.47;;;4.07;;
12892;SDS011;6514;48.606;9.222;2023-04-06T13:02:23;3.93;;;3.53;;
12892;SDS011;6514;48.606;9.222;2023-04-06T13:04:51;3.50;;;3.20;;
12892;SDS011;6514;48.606;9.222;2023-04-06T13:07:18;3.23;;;2.93;;
12892;SDS011;6514;48.606;9.222;2023-04-06T13:09:45;4.20;;;3.23;;
12892;SDS011;6514;48.606;9.222;2023-04-06T13:12:14;4.20;;;3.80;;
12892;SDS011;6514;48.606;9.222;2023-04-06T13:14:41;6.47;;;3.80;;
12892;SDS011;6514;48.606;9.222;2023-04-06T13:17:08;4.03;;;3.63;;
12892;SDS011;6514;48.606;9.222;2023-04-06T13:19:37;4.53;;;3.90;;
12892;SDS011;6514;48.606;9.222;2023-04-06T13:22:04;3.90;;;3.50;;
12892;SDS011;6514;48.606;9.222;2023-04-06T13:24:31;4.03;;;3.60;;
12892;SDS011;6514;48.606;9.222;2023-04-06T13:26:59;4.43;;;3.60;;
12892;SDS011;6514;48.606;9.222;2023-04-06T13:29:27;4.27;;;3.87;;
12892;SDS011;6514;48.606;9.222;2023-04-06T13:31:54;3.97;;;3.57;;
12892;SDS011;6514;48.606;9.222;2023-04-06T13:34:24;4.33;;;3.53;;
12892;SDS011;6514;48.606;9.222;2023-04-06T13:36:52;3.60;;;3.30;;
12892;SDS011;6514;48.606;9.222;2023-04-06T13:39:19;4.17;;;3.77;;
12892;SDS011;6514;48.606;9.222;2023-04-06T13:41:46;4.00;;;3.60;;
12892;SDS011;6514;48.606;9.222;2023-04-06T13:44:13;3.90;;;3.53;;
12892;SDS011;6514;48.606;9.222;2023-04-06T13:46:40;4.30;;;3.40;;
12892;SDS011;6514;48.606;9.222;2023-04-06T13:49:08;4.07;;;3.67;;
12892;SDS011;6514;48.606;9.222;2023-04-06T13:51:35;7.43;;;3.57;;
12892;SDS011;6514;48.606;9.222;2023-04-06T13:54:03;4.00;;;3.60;;
12892;SDS011;6514;48.606;9.222;2023-04-06T13:56:31;3.50;;;3.20;;
12892;SDS011;6514;48.606;9.222;2023-04-06T13:58:57;3.90;;;3.60;;
12892;SDS011;6514;48.606;9.222;2023-04-06T14:01:24;4.97;;;3.90;;
12892;SDS011;6514;48.606;9.222;2023-04-06T14:03:51;4.93;;;3.57;;
12892;SDS011;6514;48.606;9.222;2023-04-06T14:06:18;4.50;;;3.37;;
12892;SDS011;6514;48.606;9.222;2023-04-06T14:08:45;3.40;;;3.10;;
12892;SDS011;6514;48.606;9.222;2023-04-06T14:11:14;3.93;;;3.57;;
12892;SDS011;6514;48.606;9.222;2023-04-06T14:13:41;4.50;;;3.97;;
12892;SDS011;6514;48.606;9.222;2023-04-06T14:16:08;5.00;;;3.90;;
12892;SDS011;6514;48.606;9.222;2023-04-06T14:18:35;4.67;;;4.17;;
12892;SDS011;6514;48.606;9.222;2023-04-06T14:21:03;6.73;;;4.37;;
12892;SDS011;6514;48.606;9.222;2023-04-06T14:23:30;5.20;;;4.20;;
12892;SDS011;6514;48.606;9.222;2023-04-06T14:26:01;5.50;;;4.73;;
12892;SDS011;6514;48.606;9.222;2023-04-06T14:28:30;5.90;;;4.43;;
12892;SDS011;6514;48.606;9.222;2023-04-06T14:30:58;5.33;;;4.83;;
12892;SDS011;6514;48.606;9.222;2023-04-06T14:33:26;4.70;;;4.17;;
12892;SDS011;6514;48.606;9.222;2023-04-06T14:35:53;4.60;;;4.17;;
12892;SDS011;6514;48.606;9.222;2023-04-06T14:38:20;4.30;;;3.90;;
12892;SDS011;6514;48.606;9.222;2023-04-06T14:40:46;5.27;;;4.70;;
12892;SDS011;6514;48.606;9.222;2023-04-06T14:43:13;4.20;;;3.77;;
12892;SDS011;6514;48.606;9.222;2023-04-06T14:45:42;4.40;;;3.87;;
12892;SDS011;6514;48.606;9.222;2023-04-06T14:48:08;5.53;;;4.30;;
12892;SDS011;6514;48.606;9.222;2023-04-06T14:50:37;4.43;;;3.90;;
12892;SDS011;6514;48.606;9.222;2023-04-06T14:53:04;6.07;;;4.10;;
12892;SDS011;6514;48.606;9.222;2023-04-06T14:55:31;4.70;;;4.03;;